Time;durP1;ratioP1;P1;durP2;ratioP2;P2;SDS_P1;SDS_P2;PMS_P1;PMS_P2;Temp;Humidity;BMP_temperature;BMP_pressure;BME280_temperature;BME280_humidity;BME280_pressure;Samples;Min_cycle;Max_cycle;Signal;HPM_P1;HPM_P2
2023/04/04 00:02:09;;;;;;;8.15;3.88;;;1.60;99.90;;;;;;5054093;28;20537;-50
2023/04/04 00:04:36;;;;;;;8.20;2.47;;;2.40;99.90;;;;;;5054170;28;20200;-50
2023/04/04 00:07:03;;;;;;;11.75;2.70;;;1.90;99.90;;;;;;5054024;28;20735;-49
2023/04/04 00:09:29;;;;;;;8.50;3.10;;;1.60;99.90;;;;;;5053599;28;20220;-50
2023/04/04 00:11:57;;;;;;;5.72;2.67;;;1.80;99.90;;;;;;5053965;28;20200;-50
2023/04/04 00:14:24;;;;;;;7.55;3.05;;;2.20;99.90;;;;;;5053881;28;20196;-50
2023/04/04 00:16:51;;;;;;;8.23;3.20;;;1.80;99.90;;;;;;5052548;28;20592;-49
2023/04/04 00:19:17;;;;;;;7.25;3.20;;;1.90;99.90;;;;;;5053441;28;20220;-50
2023/04/04 00:21:45;;;;;;;8.07;3.30;;;1.50;99.90;;;;;;5053883;28;20206;-50
2023/04/04 00:24:12;;;;;;;7.30;3.10;;;1.60;99.90;;;;;;5054140;28;20291;-50
2023/04/04 00:26:38;;;;;;;5.60;3.05;;;1.80;99.90;;;;;;5054141;28;20583;-50
2023/04/04 00:29:06;;;;;;;4.40;2.50;;;1.80;99.90;;;;;;5053559;28;20219;-49
2023/04/04 00:31:33;;;;;;;9.95;3.53;;;1.80;99.90;;;;;;5053648;28;20204;-49
2023/04/04 00:34:00;;;;;;;6.38;3.65;;;1.50;99.90;;;;;;5053913;28;20678;-51
2023/04/04 00:36:27;;;;;;;5.40;3.28;;;1.90;99.90;;;;;;5052360;28;20250;-51
2023/04/04 00:38:55;;;;;;;5.82;3.40;;;1.60;99.90;;;;;;5051610;28;20200;-51
2023/04/04 00:41:22;;;;;;;10.13;3.20;;;1.60;99.90;;;;;;5052188;28;20235;-49
2023/04/04 00:43:49;;;;;;;6.30;3.30;;;1.70;99.90;;;;;;5053441;28;20194;-50
2023/04/04 00:46:18;;;;;;;7.05;3.60;;;1.70;99.90;;;;;;5053274;28;20585;-50
2023/04/04 00:48:45;;;;;;;9.55;3.85;;;1.70;99.90;;;;;;5051395;28;20243;-50
2023/04/04 00:51:12;;;;;;;9.68;4.70;;;1.70;99.90;;;;;;5051985;28;20195;-51
2023/04/04 00:53:39;;;;;;;5.43;4.05;;;1.60;99.90;;;;;;5051752;28;20211;-51
2023/04/04 00:56:09;;;;;;;12.27;5.07;;;1.70;99.90;;;;;;5053033;28;20203;-51
2023/04/04 00:58:35;;;;;;;10.32;4.30;;;1.60;99.90;;;;;;5052664;28;20819;-50
2023/04/04 01:01:02;;;;;;;11.63;4.35;;;1.50;99.90;;;;;;5052618;28;20218;-49
2023/04/04 01:03:30;;;;;;;7.60;4.55;;;1.20;99.90;;;;;;5052620;28;20192;-49
2023/04/04 01:05:57;;;;;;;10.82;4.50;;;1.50;99.90;;;;;;5051673;28;20216;-49
2023/04/04 01:08:26;;;;;;;10.07;4.72;;;1.60;99.90;;;;;;5052506;28;20680;-50
2023/04/04 01:10:53;;;;;;;6.55;4.05;;;1.40;99.90;;;;;;5052915;28;20700;-51
2023/04/04 01:13:21;;;;;;;7.80;4.40;;;1.20;99.90;;;;;;5052560;28;20236;-50
2023/04/04 01:15:48;;;;;;;7.82;4.32;;;1.40;99.90;;;;;;5054186;28;20650;-48
2023/04/04 01:18:18;;;;;;;10.00;4.13;;;1.30;99.90;;;;;;5052554;28;20294;-50
2023/04/04 01:20:54;;;;;;;6.75;4.10;;;1.40;99.90;;;;;;5054195;28;20211;-49
2023/04/04 01:23:23;;;;;;;10.57;4.32;;;1.50;99.90;;;;;;5053252;28;20257;-49
2023/04/04 01:26:01;;;;;;;6.60;3.30;;;1.20;99.90;;;;;;5053520;28;20693;-50
2023/04/04 01:28:29;;;;;;;9.70;4.47;;;1.40;99.90;;;;;;5051421;28;20664;-50
2023/04/04 01:30:59;;;;;;;7.68;4.10;;;1.20;99.90;;;;;;5050814;28;20638;-51
2023/04/04 01:33:29;;;;;;;8.65;3.83;;;1.10;99.90;;;;;;5052889;28;20200;-50
2023/04/04 01:36:05;;;;;;;8.95;4.03;;;1.50;99.90;;;;;;5051444;28;20631;-50
2023/04/04 01:38:41;;;;;;;6.30;3.65;;;1.20;99.90;;;;;;5050844;28;20210;-50
2023/04/04 01:41:12;;;;;;;11.98;3.50;;;0.90;99.90;;;;;;5051187;28;20213;-50
2023/04/04 01:43:44;;;;;;;8.27;3.60;;;1.30;99.90;;;;;;5051307;28;20618;-50
2023/04/04 01:46:12;;;;;;;8.70;3.58;;;1.20;99.90;;;;;;5050838;28;20234;-50
2023/04/04 01:48:39;;;;;;;4.72;3.10;;;1.00;99.90;;;;;;5050529;28;20200;-50
2023/04/04 01:51:07;;;;;;;10.13;3.50;;;1.00;99.90;;;;;;5051538;28;20248;-47
2023/04/04 01:53:35;;;;;;;7.85;3.45;;;1.00;99.90;;;;;;5050935;28;20257;-47
2023/04/04 01:56:01;;;;;;;8.18;4.05;;;1.40;99.90;;;;;;5052711;28;20210;-47
2023/04/04 01:58:31;;;;;;;7.82;4.68;;;1.00;99.90;;;;;;5050575;28;20200;-47
2023/04/04 02:00:57;;;;;;;6.20;3.53;;;1.10;99.90;;;;;;5050717;28;20219;-47
2023/04/04 02:03:24;;;;;;;7.32;3.15;;;1.10;99.90;;;;;;5052013;28;20194;-46
2023/04/04 02:05:51;;;;;;;8.20;4.88;;;0.90;99.90;;;;;;5050710;28;20761;-46
2023/04/04 02:08:18;;;;;;;8.68;3.80;;;0.40;99.90;;;;;;5052477;28;20282;-46
2023/04/04 02:10:51;;;;;;;6.53;2.72;;;1.20;99.90;;;;;;5053937;28;20222;-46
2023/04/04 02:13:18;;;;;;;7.25;2.80;;;0.80;99.90;;;;;;5055133;28;20195;-48
2023/04/04 02:15:48;;;;;;;4.78;2.72;;;0.50;99.90;;;;;;5051802;28;20206;-47
2023/04/04 02:18:15;;;;;;;4.53;2.80;;;0.90;99.90;;;;;;5050629;28;20628;-46
2023/04/04 02:20:41;;;;;;;6.07;3.40;;;1.10;99.90;;;;;;5050778;28;20226;-47
2023/04/04 02:23:08;;;;;;;8.38;3.88;;;1.00;99.90;;;;;;5050615;28;20200;-46
2023/04/04 02:25:35;;;;;;;10.48;3.42;;;1.00;99.90;;;;;;5050625;28;20210;-45
2023/04/04 02:28:02;;;;;;;10.20;3.75;;;0.80;99.90;;;;;;5050519;28;20196;-48
2023/04/04 02:30:28;;;;;;;5.47;3.30;;;0.90;99.90;;;;;;5051610;28;20212;-47
2023/04/04 02:32:59;;;;;;;10.35;3.58;;;1.10;99.90;;;;;;5050596;28;20222;-47
2023/04/04 02:35:26;;;;;;;9.85;3.42;;;1.00;99.90;;;;;;5051740;28;20196;-46
2023/04/04 02:37:52;;;;;;;9.07;3.35;;;1.10;99.90;;;;;;5051698;28;20561;-46
2023/04/04 02:40:23;;;;;;;5.25;3.50;;;0.50;99.90;;;;;;5050155;28;20600;-45
2023/04/04 02:42:50;;;;;;;7.28;3.30;;;0.80;99.90;;;;;;5050348;28;20668;-47
2023/04/04 02:45:17;;;;;;;5.55;3.42;;;1.20;99.90;;;;;;5050612;28;20669;-46
2023/04/04 02:47:52;;;;;;;7.35;3.65;;;0.70;99.90;;;;;;5050693;28;20226;-45
2023/04/04 02:50:25;;;;;;;8.32;3.25;;;0.90;99.90;;;;;;5050553;28;20248;-46
2023/04/04 02:53:00;;;;;;;6.07;3.15;;;0.80;99.90;;;;;;5051432;28;20671;-46
2023/04/04 02:55:27;;;;;;;10.85;3.70;;;0.80;99.90;;;;;;5051155;28;20581;-47
2023/04/04 02:57:54;;;;;;;6.20;3.78;;;0.70;99.90;;;;;;5053640;28;20223;-47
2023/04/04 03:00:20;;;;;;;10.75;4.05;;;1.10;99.90;;;;;;5051403;28;20278;-46
2023/04/04 03:02:53;;;;;;;8.15;3.63;;;0.70;99.90;;;;;;5051036;28;20204;-47
2023/04/04 03:05:20;;;;;;;10.07;3.85;;;1.10;99.90;;;;;;5051308;28;20551;-47
2023/04/04 03:07:48;;;;;;;6.40;3.35;;;1.00;99.90;;;;;;5051955;28;20231;-47
2023/04/04 03:10:15;;;;;;;6.10;3.78;;;0.90;99.90;;;;;;5052387;28;20223;-47
2023/04/04 03:12:42;;;;;;;8.82;3.95;;;0.90;99.90;;;;;;5053146;28;20233;-45
2023/04/04 03:15:10;;;;;;;9.60;3.88;;;0.70;99.90;;;;;;5051354;28;20649;-48
2023/04/04 03:17:37;;;;;;;9.38;3.72;;;0.70;99.90;;;;;;5050398;28;20677;-48
2023/04/04 03:20:04;;;;;;;5.20;3.03;;;0.70;99.90;;;;;;5049763;28;20232;-46
2023/04/04 03:22:31;;;;;;;9.82;3.05;;;0.70;99.90;;;;;;5050215;28;20207;-45
2023/04/04 03:25:01;;;;;;;6.20;3.42;;;0.90;99.90;;;;;;5050430;28;20234;-47
2023/04/04 03:27:28;;;;;;;4.63;2.42;;;1.00;99.90;;;;;;5054958;28;20288;-46
2023/04/04 03:29:54;;;;;;;6.63;3.40;;;0.70;99.90;;;;;;5053209;28;20220;-47
2023/04/04 03:32:21;;;;;;;6.50;2.95;;;0.80;99.90;;;;;;5053490;28;20655;-50
2023/04/04 03:34:48;;;;;;;8.55;3.50;;;0.80;99.90;;;;;;5054930;28;20193;-47
2023/04/04 03:37:14;;;;;;;7.50;3.38;;;0.60;99.90;;;;;;5053609;28;20297;-46
2023/04/04 03:39:41;;;;;;;6.53;3.00;;;0.50;99.90;;;;;;5054380;28;20613;-46
2023/04/04 03:42:09;;;;;;;10.18;3.78;;;0.70;99.90;;;;;;5054591;28;20199;-47
2023/04/04 03:44:39;;;;;;;8.18;2.83;;;0.80;99.90;;;;;;5053346;28;20204;-46
2023/04/04 03:47:07;;;;;;;7.03;2.95;;;0.20;99.90;;;;;;5053410;28;20220;-45
2023/04/04 03:49:35;;;;;;;14.43;3.85;;;0.70;99.90;;;;;;5052559;28;20237;-46
2023/04/04 03:52:02;;;;;;;9.77;3.08;;;0.60;99.90;;;;;;5053220;28;20268;-46
2023/04/04 03:54:29;;;;;;;4.97;3.55;;;0.00;99.90;;;;;;5053048;28;20208;-46
2023/04/04 03:56:56;;;;;;;8.85;3.22;;;0.60;99.90;;;;;;5053100;28;20690;-44
2023/04/04 03:59:25;;;;;;;8.45;3.45;;;-0.20;99.90;;;;;;5052749;28;20216;-45
2023/04/04 04:01:52;;;;;;;12.52;3.90;;;0.70;99.90;;;;;;5053099;28;20207;-46
2023/04/04 04:04:19;;;;;;;9.18;4.10;;;0.50;99.90;;;;;;5053046;28;20210;-46
2023/04/04 04:06:47;;;;;;;6.35;3.50;;;0.60;99.90;;;;;;5054091;28;20292;-45
2023/04/04 04:09:14;;;;;;;4.75;2.80;;;0.40;99.90;;;;;;5053777;28;20719;-48
2023/04/04 04:11:41;;;;;;;8.32;3.13;;;0.30;99.90;;;;;;5054119;28;20210;-45
2023/04/04 04:14:07;;;;;;;7.75;2.92;;;0.40;99.90;;;;;;5052733;28;20215;-45
2023/04/04 04:16:40;;;;;;;5.63;3.28;;;0.40;99.90;;;;;;5052730;28;20221;-45
2023/04/04 04:19:07;;;;;;;3.95;2.75;;;0.20;99.90;;;;;;5052199;28;20222;-45
2023/04/04 04:21:38;;;;;;;10.30;3.85;;;0.30;99.90;;;;;;5052754;28;20208;-45
2023/04/04 04:24:05;;;;;;;8.80;3.50;;;0.60;99.90;;;;;;5052405;28;20560;-46
2023/04/04 04:26:32;;;;;;;8.10;3.40;;;0.40;99.90;;;;;;5052471;28;20197;-47
2023/04/04 04:28:59;;;;;;;6.82;3.00;;;0.50;99.90;;;;;;5052148;28;20226;-46
2023/04/04 04:31:30;;;;;;;6.78;2.75;;;0.20;99.90;;;;;;5052642;28;20232;-46
2023/04/04 04:33:58;;;;;;;5.85;3.00;;;0.50;99.90;;;;;;5052604;28;20565;-48
2023/04/04 04:36:29;;;;;;;4.03;2.40;;;0.50;99.90;;;;;;5051957;28;20204;-47
2023/04/04 04:39:10;;;;;;;6.20;3.00;;;0.30;99.90;;;;;;5052112;28;20240;-46
2023/04/04 04:41:41;;;;;;;6.28;3.63;;;-0.40;99.90;;;;;;5052473;28;20681;-46
2023/04/04 04:44:09;;;;;;;8.82;3.80;;;0.30;99.90;;;;;;5052125;28;20665;-47
2023/04/04 04:46:36;;;;;;;8.32;3.90;;;0.10;99.90;;;;;;5051991;28;20206;-46
2023/04/04 04:49:11;;;;;;;8.52;4.60;;;-0.40;99.90;;;;;;5051665;28;20250;-46
2023/04/04 04:51:38;;;;;;;15.10;6.03;;;0.10;99.90;;;;;;5052386;28;20207;-46
2023/04/04 04:54:05;;;;;;;10.38;5.75;;;0.40;99.90;;;;;;5052502;28;20196;-49
2023/04/04 04:56:32;;;;;;;13.60;5.57;;;0.40;99.90;;;;;;5052397;28;20203;-45
2023/04/04 04:59:07;;;;;;;10.25;5.68;;;0.20;99.90;;;;;;5051707;28;20794;-45
2023/04/04 05:01:35;;;;;;;13.23;4.53;;;0.20;99.90;;;;;;5052093;28;20313;-45
2023/04/04 05:04:02;;;;;;;12.00;5.20;;;0.10;99.90;;;;;;5051907;28;20203;-45
2023/04/04 05:06:39;;;;;;;9.77;4.97;;;0.20;99.90;;;;;;5053430;28;20218;-47
2023/04/04 05:09:08;;;;;;;11.35;4.70;;;0.10;99.90;;;;;;5051307;28;20224;-47
2023/04/04 05:11:37;;;;;;;12.82;4.70;;;0.20;99.90;;;;;;5051536;28;20207;-46
2023/04/04 05:14:06;;;;;;;13.73;5.43;;;0.40;99.90;;;;;;5051436;28;20214;-46
2023/04/04 05:16:37;;;;;;;13.35;5.55;;;0.20;99.90;;;;;;5051446;28;20297;-47
2023/04/04 05:19:04;;;;;;;10.50;4.70;;;0.20;99.90;;;;;;5050889;28;20228;-45
2023/04/04 05:21:38;;;;;;;11.35;6.45;;;0.50;99.90;;;;;;5051489;28;20202;-46
2023/04/04 05:24:09;;;;;;;10.07;3.92;;;0.30;99.90;;;;;;5051527;28;20210;-48
2023/04/04 05:26:57;;;;;;;6.35;3.60;;;0.60;99.90;;;;;;5051399;28;20214;-47
2023/04/04 05:29:24;;;;;;;6.93;4.40;;;0.50;99.90;;;;;;5050715;28;20244;-48
2023/04/04 05:31:51;;;;;;;8.82;3.78;;;0.40;99.90;;;;;;5051265;28;20206;-46
2023/04/04 05:34:20;;;;;;;12.38;4.18;;;0.20;99.90;;;;;;5051689;28;20217;-48
2023/04/04 05:36:51;;;;;;;9.73;4.57;;;0.60;99.90;;;;;;5051463;28;20735;-47
2023/04/04 05:39:18;;;;;;;6.95;3.58;;;0.80;99.90;;;;;;5051191;28;20293;-47
2023/04/04 05:41:57;;;;;;;6.47;2.95;;;0.60;99.90;;;;;;5053100;28;20738;-45
2023/04/04 05:44:24;;;;;;;5.00;3.42;;;0.60;99.90;;;;;;5055555;28;20237;-45
2023/04/04 05:46:51;;;;;;;5.65;3.80;;;0.90;99.90;;;;;;5054360;28;20292;-47
2023/04/04 05:49:19;;;;;;;12.50;3.80;;;0.90;99.90;;;;;;5055141;28;20364;-47
2023/04/04 05:51:56;;;;;;;9.07;2.97;;;1.10;99.90;;;;;;5055076;28;20203;-45
2023/04/04 05:54:23;;;;;;;8.23;4.38;;;1.00;99.90;;;;;;5053369;28;20206;-46
2023/04/04 05:56:51;;;;;;;6.95;3.15;;;1.20;99.90;;;;;;5051545;28;20580;-46
2023/04/04 05:59:35;;;;;;;10.50;3.78;;;1.40;99.90;;;;;;5050914;28;20310;-47
2023/04/04 06:02:06;;;;;;;6.38;3.15;;;1.40;99.90;;;;;;5051106;28;20665;-46
2023/04/04 06:04:34;;;;;;;5.68;3.05;;;1.70;99.90;;;;;;5051378;28;20214;-47
2023/04/04 06:07:04;;;;;;;6.10;3.30;;;1.60;99.90;;;;;;5051146;28;20203;-46
2023/04/04 06:09:31;;;;;;;9.18;3.17;;;1.70;99.90;;;;;;5052055;28;20207;-46
2023/04/04 06:11:58;;;;;;;13.20;3.13;;;1.90;99.90;;;;;;5050714;28;20200;-47
2023/04/04 06:14:24;;;;;;;11.43;3.63;;;1.80;99.90;;;;;;5050570;28;20200;-45
2023/04/04 06:16:51;;;;;;;9.43;4.38;;;1.50;99.90;;;;;;5050780;28;20269;-46
2023/04/04 06:19:18;;;;;;;8.75;3.42;;;2.10;99.90;;;;;;5051629;28;20230;-46
2023/04/04 06:21:45;;;;;;;8.93;4.18;;;2.00;99.90;;;;;;5052453;28;20210;-46
2023/04/04 06:24:14;;;;;;;10.52;3.60;;;2.20;99.90;;;;;;5051848;28;20200;-47
2023/04/04 06:26:41;;;;;;;10.35;4.45;;;2.20;99.90;;;;;;5053961;28;20208;-46
2023/04/04 06:29:08;;;;;;;7.43;3.97;;;2.20;99.90;;;;;;5053548;28;20228;-47
2023/04/04 06:31:37;;;;;;;7.78;3.75;;;2.30;99.90;;;;;;5055418;28;20200;-46
2023/04/04 06:34:14;;;;;;;8.00;3.25;;;2.60;99.90;;;;;;5055249;28;20699;-47
2023/04/04 06:37:09;;;;;;;6.55;3.65;;;2.70;99.90;;;;;;5049620;28;20267;-48
2023/04/04 06:39:45;;;;;;;7.10;3.47;;;2.80;99.90;;;;;;5052034;28;20235;-46
2023/04/04 06:42:20;;;;;;;10.15;3.80;;;2.90;99.90;;;;;;5052685;28;20254;-48
2023/04/04 06:44:49;;;;;;;6.03;3.67;;;2.80;99.90;;;;;;5054426;28;20208;-47
2023/04/04 06:47:17;;;;;;;6.50;4.38;;;2.90;99.90;;;;;;5051654;28;20203;-46
2023/04/04 06:49:43;;;;;;;9.82;4.65;;;2.40;99.90;;;;;;5052549;28;20238;-46
2023/04/04 06:52:10;;;;;;;7.70;3.22;;;3.20;99.90;;;;;;5054934;28;20227;-45
2023/04/04 06:54:37;;;;;;;10.57;3.40;;;3.10;99.90;;;;;;5055952;28;20237;-46
2023/04/04 06:57:05;;;;;;;11.98;3.90;;;3.10;99.90;;;;;;5055223;28;20658;-48
2023/04/04 06:59:32;;;;;;;10.70;6.72;;;2.90;99.90;;;;;;5054308;28;20224;-47
2023/04/04 07:01:59;;;;;;;7.20;3.75;;;3.00;99.90;;;;;;5057351;28;20199;-46
2023/04/04 07:04:26;;;;;;;7.20;3.20;;;2.90;99.90;;;;;;5060363;28;20201;-46
2023/04/04 07:06:52;;;;;;;6.82;3.15;;;3.00;99.90;;;;;;5060611;28;20203;-48
2023/04/04 07:09:19;;;;;;;5.32;3.40;;;3.10;99.90;;;;;;5060119;28;20219;-48
2023/04/04 07:11:46;;;;;;;4.82;2.30;;;3.00;99.90;;;;;;5059615;28;20249;-45
2023/04/04 07:14:13;;;;;;;6.72;2.90;;;3.20;99.90;;;;;;5060552;28;20242;-49
2023/04/04 07:16:40;;;;;;;9.30;2.88;;;3.30;99.90;;;;;;5059928;28;20196;-47
2023/04/04 07:19:07;;;;;;;6.90;2.53;;;3.40;99.90;;;;;;5060333;28;20767;-48
2023/04/04 07:21:33;;;;;;;8.40;3.03;;;3.30;99.90;;;;;;5060324;28;20231;-47
2023/04/04 07:24:01;;;;;;;11.60;10.38;;;3.10;99.90;;;;;;5060608;28;20303;-47
2023/04/04 07:26:27;;;;;;;3.42;2.55;;;3.40;99.90;;;;;;5060164;28;20219;-47
2023/04/04 07:28:54;;;;;;;4.97;2.60;;;3.20;99.90;;;;;;5058373;28;20223;-48
2023/04/04 07:31:22;;;;;;;6.30;2.90;;;3.30;99.90;;;;;;5059287;28;20199;-48
2023/04/04 07:33:48;;;;;;;4.05;2.30;;;2.60;99.90;;;;;;5055298;28;20227;-48
2023/04/04 07:36:15;;;;;;;5.75;2.65;;;3.40;99.90;;;;;;5053516;28;20207;-47
2023/04/04 07:38:42;;;;;;;5.43;2.40;;;3.40;99.90;;;;;;5054203;28;20193;-46
2023/04/04 07:41:10;;;;;;;8.35;2.95;;;3.60;99.90;;;;;;5054717;28;20225;-47
2023/04/04 07:43:37;;;;;;;4.38;2.90;;;3.40;99.90;;;;;;5054547;28;20275;-46
2023/04/04 07:46:03;;;;;;;5.90;3.20;;;3.40;99.90;;;;;;5054002;28;20261;-48
2023/04/04 07:48:31;;;;;;;4.88;1.95;;;3.70;99.90;;;;;;5054422;28;20224;-46
2023/04/04 07:50:59;;;;;;;10.40;2.50;;;3.20;99.90;;;;;;5055332;28;20230;-47
2023/04/04 07:53:25;;;;;;;5.18;2.08;;;3.40;99.90;;;;;;5054519;28;20204;-47
2023/04/04 07:55:52;;;;;;;5.43;3.10;;;3.60;99.90;;;;;;5054759;28;20282;-45
2023/04/04 07:58:20;;;;;;;2.42;1.83;;;3.40;99.90;;;;;;5053909;28;20188;-48
2023/04/04 08:00:47;;;;;;;4.03;2.55;;;3.60;99.90;;;;;;5054008;28;20228;-47
2023/04/04 08:03:13;;;;;;;5.63;2.15;;;3.40;99.90;;;;;;5053007;28;20427;-48
2023/04/04 08:05:42;;;;;;;21.55;13.63;;;3.90;99.90;;;;;;5054161;28;20196;-47
2023/04/04 08:08:09;;;;;;;6.00;2.30;;;3.80;99.90;;;;;;5053404;28;20231;-46
2023/04/04 08:10:35;;;;;;;7.18;2.10;;;3.70;99.90;;;;;;5053779;28;20709;-49
2023/04/04 08:13:04;;;;;;;5.50;2.60;;;3.90;99.90;;;;;;5053221;28;20669;-48
2023/04/04 08:15:31;;;;;;;3.72;2.17;;;3.90;99.90;;;;;;5054028;28;20283;-46
2023/04/04 08:17:57;;;;;;;6.35;2.42;;;3.70;99.90;;;;;;5054394;28;20591;-47
2023/04/04 08:20:25;;;;;;;5.50;2.35;;;3.70;99.80;;;;;;5052507;28;20227;-46
2023/04/04 08:22:52;;;;;;;6.20;2.70;;;3.70;99.90;;;;;;5055296;28;20506;-47
2023/04/04 08:25:19;;;;;;;6.50;2.20;;;3.60;99.90;;;;;;5055958;28;20555;-46
2023/04/04 08:27:46;;;;;;;4.18;2.17;;;3.10;99.30;;;;;;5055359;28;20219;-46
2023/04/04 08:30:14;;;;;;;8.52;3.15;;;3.70;99.60;;;;;;5054880;28;20216;-46
2023/04/04 08:32:41;;;;;;;8.10;3.65;;;3.80;99.70;;;;;;5055523;28;20210;-46
2023/04/04 08:35:08;;;;;;;4.90;2.00;;;3.40;99.70;;;;;;5051419;28;20211;-47
2023/04/04 08:37:35;;;;;;;6.22;2.13;;;3.80;99.60;;;;;;5053377;28;20208;-47
2023/04/04 08:40:03;;;;;;;4.22;1.80;;;3.50;99.30;;;;;;5053358;28;20723;-46
2023/04/04 08:42:34;;;;;;;3.85;1.92;;;3.80;99.30;;;;;;5053481;28;20558;-46
2023/04/04 08:45:03;;;;;;;3.90;1.92;;;4.10;98.70;;;;;;5052534;28;20242;-46
2023/04/04 08:47:31;;;;;;;7.85;2.17;;;4.10;98.70;;;;;;5053380;28;20208;-46
2023/04/04 08:50:00;;;;;;;3.42;1.95;;;4.10;98.90;;;;;;5052694;28;20262;-46
2023/04/04 08:52:28;;;;;;;6.00;2.47;;;3.70;98.50;;;;;;5051466;28;20218;-48
2023/04/04 08:54:56;;;;;;;5.93;2.40;;;4.30;98.40;;;;;;5053348;28;20673;-47
2023/04/04 08:57:24;;;;;;;3.63;1.98;;;4.30;98.30;;;;;;5052954;28;20246;-45
2023/04/04 08:59:50;;;;;;;6.20;2.13;;;4.40;97.90;;;;;;5052767;28;20212;-47
2023/04/04 09:02:26;;;;;;;5.60;2.20;;;4.40;97.70;;;;;;5053251;28;20196;-47
2023/04/04 09:04:53;;;;;;;4.72;2.28;;;4.10;97.60;;;;;;5050662;28;20921;-46
2023/04/04 09:07:21;;;;;;;5.38;2.65;;;4.70;97.30;;;;;;5052737;28;20196;-46
2023/04/04 09:09:49;;;;;;;4.28;1.95;;;4.70;96.70;;;;;;5052227;28;20245;-45
2023/04/04 09:12:16;;;;;;;3.80;2.05;;;4.50;96.30;;;;;;5052830;28;20258;-46
2023/04/04 09:14:47;;;;;;;6.80;3.67;;;4.60;96.30;;;;;;5053144;28;20241;-48
2023/04/04 09:17:14;;;;;;;3.80;2.60;;;4.80;96.40;;;;;;5052620;28;20196;-45
2023/04/04 09:19:40;;;;;;;4.95;3.50;;;4.90;96.10;;;;;;5052313;28;20216;-46
2023/04/04 09:22:08;;;;;;;4.72;1.88;;;4.70;96.00;;;;;;5052586;28;20199;-47
2023/04/04 09:24:39;;;;;;;3.00;1.80;;;5.00;95.70;;;;;;5052163;28;20412;-46
2023/04/04 09:27:07;;;;;;;4.57;2.53;;;5.00;94.80;;;;;;5052423;28;20231;-47
2023/04/04 09:29:34;;;;;;;5.20;2.00;;;5.10;94.70;;;;;;5051880;28;20255;-45
2023/04/04 09:32:02;;;;;;;3.05;1.95;;;5.10;94.40;;;;;;5052933;28;20203;-47
2023/04/04 09:34:30;;;;;;;5.43;2.35;;;5.20;93.90;;;;;;5052248;28;20204;-47
2023/04/04 09:36:57;;;;;;;5.60;1.90;;;5.50;93.60;;;;;;5052432;28;20199;-46
2023/04/04 09:39:23;;;;;;;4.53;2.10;;;4.80;93.20;;;;;;5051528;28;20216;-46
2023/04/04 09:41:50;;;;;;;5.47;2.17;;;5.20;93.10;;;;;;5050768;28;20545;-47
2023/04/04 09:44:17;;;;;;;5.22;2.10;;;4.80;93.00;;;;;;5051444;28;20424;-48
2023/04/04 09:46:44;;;;;;;6.53;2.03;;;5.40;92.50;;;;;;5051617;28;20227;-50
2023/04/04 09:49:18;;;;;;;3.53;2.00;;;5.50;91.50;;;;;;5051164;28;21009;-50
2023/04/04 09:51:48;;;;;;;4.20;2.13;;;5.70;91.70;;;;;;5051934;28;20200;-49
2023/04/04 09:54:21;;;;;;;4.50;2.23;;;5.70;91.10;;;;;;5052280;28;20815;-49
2023/04/04 09:56:48;;;;;;;4.73;1.87;;;5.30;90.40;;;;;;5051491;28;20925;-50
2023/04/04 09:59:15;;;;;;;6.60;1.80;;;6.10;90.70;;;;;;5049908;28;20877;-50
2023/04/04 10:01:44;;;;;;;3.27;1.57;;;6.40;90.20;;;;;;5052161;28;20201;-49
2023/04/04 10:04:14;;;;;;;4.20;1.70;;;5.90;88.10;;;;;;5055230;28;20450;-49
2023/04/04 10:06:43;;;;;;;4.10;1.47;;;6.00;87.60;;;;;;5051943;28;20443;-50
2023/04/04 10:09:10;;;;;;;4.20;1.63;;;5.60;87.10;;;;;;5051423;28;20499;-48
2023/04/04 10:11:37;;;;;;;4.60;2.03;;;5.30;86.10;;;;;;5051617;28;20778;-49
2023/04/04 10:14:04;;;;;;;5.70;1.47;;;5.80;86.30;;;;;;5051420;28;20462;-50
2023/04/04 10:16:32;;;;;;;3.37;1.53;;;5.70;84.90;;;;;;5049575;28;20467;-49
2023/04/04 10:18:59;;;;;;;5.00;1.88;;;5.90;86.30;;;;;;5042105;28;20815;-49
2023/04/04 10:21:27;;;;;;;2.90;1.40;;;6.00;86.90;;;;;;5047616;28;20201;-49
2023/04/04 10:23:56;;;;;;;4.30;1.37;;;6.30;86.50;;;;;;5051382;28;20424;-47
2023/04/04 10:26:24;;;;;;;3.97;1.63;;;6.10;85.20;;;;;;5051981;28;20542;-49
2023/04/04 10:28:51;;;;;;;3.92;1.50;;;5.70;83.50;;;;;;5048529;28;20434;-49
2023/04/04 10:31:23;;;;;;;24.63;14.10;;;6.80;84.80;;;;;;5035902;28;20202;-48
2023/04/04 10:33:59;;;;;;;6.00;1.70;;;6.80;84.50;;;;;;5038002;28;20460;-47
2023/04/04 10:36:30;;;;;;;4.33;1.63;;;6.50;81.70;;;;;;5044556;28;20866;-48
2023/04/04 10:39:05;;;;;;;3.30;1.30;;;6.50;81.90;;;;;;5036958;28;20489;-49
2023/04/04 10:41:32;;;;;;;5.57;1.70;;;6.60;81.90;;;;;;5047420;28;20942;-49
2023/04/04 10:44:05;;;;;;;3.53;1.67;;;6.40;81.80;;;;;;5041917;28;20419;-51
2023/04/04 10:46:33;;;;;;;4.10;1.73;;;6.70;80.70;;;;;;5035939;28;20950;-49
2023/04/04 10:49:02;;;;;;;3.50;1.30;;;6.20;78.30;;;;;;5046220;28;20473;-49
2023/04/04 10:51:31;;;;;;;2.70;1.47;;;6.50;76.70;;;;;;5035554;28;20448;-49
2023/04/04 10:53:59;;;;;;;3.20;1.50;;;6.80;76.00;;;;;;5035656;28;21012;-50
2023/04/04 10:56:26;;;;;;;2.35;1.25;;;6.80;75.90;;;;;;5034425;28;20873;-49
2023/04/04 10:59:09;;;;;;;5.63;1.53;;;6.80;74.50;;;;;;5048941;28;20744;-50
2023/04/04 11:01:48;;;;;;;4.63;2.43;;;7.10;72.60;;;;;;5036393;28;20970;-50
2023/04/04 11:04:18;;;;;;;2.33;1.50;;;6.90;72.30;;;;;;5034469;28;20438;-49
2023/04/04 11:07:15;;;;;;;2.27;1.40;;;6.40;71.10;;;;;;5033261;28;20417;-49
2023/04/04 11:09:55;;;;;;;5.50;1.90;;;7.20;70.90;;;;;;5032494;28;21020;-50
2023/04/04 11:12:27;;;;;;;4.63;1.50;;;7.10;71.40;;;;;;5032019;28;20463;-51
2023/04/04 11:14:58;;;;;;;2.53;1.30;;;6.60;71.20;;;;;;5033223;28;20901;-50
2023/04/04 11:17:43;;;;;;;4.37;1.60;;;7.30;72.40;;;;;;5032799;28;20427;-49
2023/04/04 11:20:10;;;;;;;5.23;1.40;;;7.30;72.30;;;;;;5032958;28;20454;-50
2023/04/04 11:22:41;;;;;;;3.00;1.20;;;7.10;71.20;;;;;;5034111;28;20436;-49
2023/04/04 11:25:31;;;;;;;3.07;1.47;;;7.30;69.30;;;;;;5034528;28;20430;-49
2023/04/04 11:27:58;;;;;;;4.30;1.87;;;7.40;70.20;;;;;;5035015;28;20412;-49
2023/04/04 11:30:27;;;;;;;2.57;1.63;;;7.30;70.90;;;;;;5037754;28;20466;-50
2023/04/04 11:32:58;;;;;;;6.80;1.63;;;7.20;68.60;;;;;;5035082;28;20484;-49
2023/04/04 11:35:25;;;;;;;3.40;1.40;;;7.40;68.90;;;;;;5034641;28;20437;-49
2023/04/04 11:38:02;;;;;;;3.10;1.33;;;7.20;67.30;;;;;;5034465;28;20438;-49
2023/04/04 11:40:40;;;;;;;3.67;1.40;;;7.20;67.90;;;;;;5034181;28;20452;-49
2023/04/04 11:43:08;;;;;;;5.47;1.50;;;7.30;66.80;;;;;;5041478;28;20444;-49
2023/04/04 11:45:36;;;;;;;2.60;1.40;;;7.40;66.90;;;;;;5054688;28;20942;-50
2023/04/04 11:48:04;;;;;;;2.63;1.53;;;7.50;66.50;;;;;;5052341;28;20459;-48
2023/04/04 11:50:35;;;;;;;2.77;1.63;;;7.60;66.20;;;;;;5054030;28;20541;-51
2023/04/04 11:53:07;;;;;;;12.40;8.83;;;7.30;66.10;;;;;;5053721;28;20524;-50
2023/04/04 11:55:33;;;;;;;3.80;2.08;;;7.70;66.20;;;;;;5051764;28;20450;-50
2023/04/04 11:58:09;;;;;;;3.10;1.20;;;7.70;66.40;;;;;;5053967;28;20204;-49
2023/04/04 12:00:37;;;;;;;3.63;2.20;;;7.50;66.10;;;;;;5054514;28;20515;-49
2023/04/04 12:03:05;;;;;;;3.10;1.30;;;7.90;67.80;;;;;;5054242;28;20432;-49
2023/04/04 12:05:32;;;;;;;2.17;1.20;;;7.80;68.00;;;;;;5054246;28;20429;-50
2023/04/04 12:08:01;;;;;;;3.87;1.33;;;7.20;67.40;;;;;;5053753;28;20556;-51
2023/04/04 12:10:32;;;;;;;2.07;1.20;;;8.10;67.80;;;;;;5053633;28;20473;-50
2023/04/04 12:12:58;;;;;;;5.60;1.70;;;7.70;65.50;;;;;;5054674;28;20905;-50
2023/04/04 12:15:27;;;;;;;2.73;1.30;;;7.90;65.30;;;;;;5054103;28;20807;-49
2023/04/04 12:17:55;;;;;;;2.90;1.80;;;7.50;64.00;;;;;;5053761;28;20481;-50
2023/04/04 12:20:23;;;;;;;3.83;1.30;;;7.90;64.80;;;;;;5053104;28;20444;-50
2023/04/04 12:22:50;;;;;;;4.60;1.60;;;7.20;64.00;;;;;;5052247;28;20473;-50
2023/04/04 12:25:18;;;;;;;4.88;1.40;;;7.60;63.90;;;;;;5053517;28;20951;-49
2023/04/04 12:27:47;;;;;;;4.67;1.40;;;7.80;63.90;;;;;;5054203;28;20675;-48
2023/04/04 12:30:15;;;;;;;3.07;1.40;;;7.80;62.70;;;;;;5052258;28;20853;-50
2023/04/04 12:32:42;;;;;;;2.90;1.47;;;8.10;62.90;;;;;;5053885;28;20461;-49
2023/04/04 12:35:12;;;;;;;2.80;1.53;;;8.30;63.40;;;;;;5054083;28;20434;-49
2023/04/04 12:37:39;;;;;;;6.50;1.50;;;8.50;62.20;;;;;;5053491;28;20409;-49
2023/04/04 12:40:07;;;;;;;3.53;1.27;;;8.10;63.40;;;;;;5053092;28;20918;-49
2023/04/04 12:42:35;;;;;;;2.30;1.10;;;8.10;63.00;;;;;;5053599;28;20440;-48
2023/04/04 12:45:04;;;;;;;3.93;1.83;;;7.90;62.30;;;;;;5053488;28;20437;-50
2023/04/04 12:47:31;;;;;;;2.70;1.30;;;7.80;62.70;;;;;;5053627;28;20419;-49
2023/04/04 12:49:58;;;;;;;5.10;1.47;;;8.00;62.40;;;;;;5052741;28;20521;-48
2023/04/04 12:52:30;;;;;;;3.10;1.40;;;7.80;61.40;;;;;;5053548;28;20413;-50
2023/04/04 12:54:59;;;;;;;4.93;1.40;;;8.10;62.00;;;;;;5053163;28;20429;-49
2023/04/04 12:57:28;;;;;;;4.77;1.70;;;8.20;62.50;;;;;;5052757;28;20429;-50
2023/04/04 12:59:55;;;;;;;3.73;1.47;;;8.30;63.30;;;;;;5052713;28;20584;-49
2023/04/04 13:02:23;;;;;;;2.93;1.40;;;8.20;61.70;;;;;;5053238;28;20444;-51
2023/04/04 13:04:54;;;;;;;2.30;1.10;;;8.10;61.10;;;;;;5052975;28;20443;-48